createdAt,value
2022-09-22T00:01:02.814Z,16.50
2022-09-22T00:03:30.324Z,16.65
2022-09-22T00:06:10.683Z,16.60
2022-09-22T00:08:39.743Z,16.75
2022-09-22T00:11:19.269Z,16.42
2022-09-22T00:13:54.691Z,16.54
2022-09-22T00:16:29.850Z,16.66
2022-09-22T00:18:56.707Z,16.51
2022-09-22T00:21:27.998Z,16.45
2022-09-22T00:23:55.350Z,16.45
2022-09-22T00:26:23.883Z,16.30
2022-09-22T00:28:52.900Z,16.41
2022-09-22T00:31:25.121Z,16.44
2022-09-22T00:33:53.939Z,16.74
2022-09-22T00:36:22.951Z,16.69
2022-09-22T00:38:51.704Z,16.62
2022-09-22T00:41:30.899Z,16.56
2022-09-22T00:44:37.728Z,16.42
2022-09-22T00:47:29.692Z,16.53
2022-09-22T00:50:05.592Z,16.37
2022-09-22T00:52:37.572Z,16.64
2022-09-22T00:55:09.199Z,16.43
2022-09-22T00:57:39.776Z,16.29
2022-09-22T01:00:09.574Z,16.65
2022-09-22T01:02:37.311Z,16.41
2022-09-22T01:05:05.358Z,16.43
2022-09-22T01:07:32.510Z,16.48
2022-09-22T01:09:59.976Z,16.52
2022-09-22T01:12:29.644Z,16.59
2022-09-22T01:15:14.511Z,16.67
2022-09-22T01:18:04.199Z,16.72
2022-09-22T01:20:33.752Z,16.72
2022-09-22T01:23:06.511Z,16.53
2022-09-22T01:26:00.396Z,16.13
2022-09-22T01:28:30.004Z,16.56
2022-09-22T01:31:04.263Z,16.56
2022-09-22T01:33:59.242Z,16.70
2022-09-22T01:36:41.418Z,16.62
2022-09-22T01:39:14.544Z,16.51
2022-09-22T01:42:17.186Z,16.62
2022-09-22T01:44:54.867Z,16.51
2022-09-22T01:47:26.855Z,16.47
2022-09-22T01:49:59.420Z,16.46
2022-09-22T01:52:29.853Z,16.76
2022-09-22T01:55:06.224Z,16.49
2022-09-22T01:57:52.027Z,16.63
2022-09-22T02:00:19.076Z,16.56
2022-09-22T02:03:10.535Z,16.64
2022-09-22T02:05:49.671Z,16.80
2022-09-22T02:08:33.000Z,16.48
2022-09-22T02:11:09.835Z,16.75
2022-09-22T02:13:37.072Z,16.62
2022-09-22T02:16:05.739Z,16.59
2022-09-22T02:18:43.670Z,16.74
2022-09-22T02:21:11.082Z,16.79
2022-09-22T02:23:38.275Z,16.73
2022-09-22T02:26:06.917Z,16.81
2022-09-22T02:28:38.817Z,16.66
2022-09-22T02:31:25.117Z,16.97
2022-09-22T02:33:52.586Z,16.75
2022-09-22T02:36:50.564Z,16.73
2022-09-22T02:39:31.144Z,16.79
2022-09-22T02:42:06.878Z,16.94
2022-09-22T02:44:52.834Z,16.57
2022-09-22T02:47:40.227Z,16.67
2022-09-22T02:50:10.824Z,16.32
2022-09-22T02:52:39.470Z,16.80
2022-09-22T02:55:08.390Z,16.63
2022-09-22T02:57:35.159Z,16.64
2022-09-22T03:00:02.658Z,16.36
2022-09-22T03:02:29.374Z,16.49
2022-09-22T03:04:57.614Z,16.50
2022-09-22T03:07:24.381Z,16.43
2022-09-22T03:09:51.087Z,16.42
2022-09-22T03:12:17.861Z,16.48
2022-09-22T03:14:44.537Z,16.43
2022-09-22T03:17:11.236Z,16.46
2022-09-22T03:19:38.011Z,16.69
2022-09-22T03:22:04.888Z,16.30
2022-09-22T03:24:31.618Z,16.55
2022-09-22T03:26:58.364Z,16.39
2022-09-22T03:29:25.067Z,16.67
2022-09-22T03:31:51.808Z,16.63
2022-09-22T03:34:18.518Z,16.66
2022-09-22T03:36:45.263Z,16.39
2022-09-22T03:39:11.931Z,16.51
2022-09-22T03:41:38.787Z,16.26
2022-09-22T03:44:06.041Z,16.67
2022-09-22T03:46:32.922Z,16.62
2022-09-22T03:48:59.623Z,16.34
2022-09-22T03:51:26.624Z,16.60
2022-09-22T03:53:54.634Z,16.19
2022-09-22T03:56:21.277Z,16.46
2022-09-22T03:58:48.028Z,16.41
2022-09-22T04:01:14.967Z,16.33
2022-09-22T04:03:42.014Z,16.21
2022-09-22T04:06:10.424Z,16.19
2022-09-22T04:08:37.382Z,16.62
2022-09-22T04:11:05.303Z,16.47
2022-09-22T04:13:32.060Z,16.34
2022-09-22T04:15:58.718Z,16.22
2022-09-22T04:18:26.616Z,16.48
2022-09-22T04:20:58.286Z,16.38
2022-09-22T04:23:26.476Z,16.51
2022-09-22T04:25:53.264Z,16.36
2022-09-22T04:28:19.947Z,16.33
2022-09-22T04:30:47.545Z,16.29
2022-09-22T04:33:14.502Z,16.67
2022-09-22T04:35:41.175Z,16.44
2022-09-22T04:38:07.878Z,16.51
2022-09-22T04:40:34.674Z,16.58
2022-09-22T04:43:01.449Z,16.79
2022-09-22T04:45:28.132Z,16.67
2022-09-22T04:47:55.098Z,16.26
2022-09-22T04:50:23.175Z,16.41
2022-09-22T04:52:52.898Z,16.79
2022-09-22T04:55:21.139Z,16.58
2022-09-22T04:57:49.089Z,16.66
2022-09-22T05:00:16.801Z,16.60
2022-09-22T05:02:43.775Z,16.60
2022-09-22T05:05:10.906Z,16.54
2022-09-22T05:07:45.765Z,16.57
2022-09-22T05:10:13.454Z,16.39
2022-09-22T05:12:41.286Z,16.27
2022-09-22T05:15:09.847Z,16.42
2022-09-22T05:17:37.048Z,16.20
2022-09-22T05:20:05.972Z,16.48
2022-09-22T05:22:39.745Z,16.48
2022-09-22T05:25:09.262Z,16.24
2022-09-22T05:27:36.083Z,16.40
2022-09-22T05:30:03.140Z,16.28
2022-09-22T05:32:29.857Z,16.27
2022-09-22T05:34:56.635Z,16.40
2022-09-22T05:37:23.275Z,16.27
2022-09-22T05:39:49.946Z,16.14
2022-09-22T05:42:16.605Z,16.06
2022-09-22T05:44:43.282Z,16.23
2022-09-22T05:47:09.939Z,16.16
2022-09-22T05:49:36.635Z,16.14
2022-09-22T05:52:03.375Z,16.07
2022-09-22T05:54:30.013Z,16.10
2022-09-22T05:56:56.749Z,16.13
2022-09-22T05:59:23.519Z,16.16
2022-09-22T06:01:50.262Z,16.05
2022-09-22T06:04:17.067Z,15.90
2022-09-22T06:06:43.860Z,16.19
2022-09-22T06:09:10.613Z,16.29
2022-09-22T06:11:37.461Z,16.18
2022-09-22T06:14:04.186Z,16.34
2022-09-22T06:16:31.825Z,16.37
2022-09-22T06:18:58.564Z,16.35
2022-09-22T06:21:26.013Z,16.26
2022-09-22T06:23:52.795Z,16.20
2022-09-22T06:26:19.470Z,16.37
2022-09-22T06:28:47.147Z,16.22
2022-09-22T07:11:40.887Z,16.23
2022-09-22T07:52:31.199Z,16.49
2022-09-22T07:57:39.648Z,16.04
2022-09-22T08:14:01.448Z,16.63
2022-09-22T08:22:03.686Z,16.37
2022-09-22T09:16:57.021Z,16.81
2022-09-22T09:19:34.405Z,17.06
2022-09-22T09:22:07.609Z,16.98
2022-09-22T09:27:37.610Z,17.04
2022-09-22T09:30:19.667Z,16.80
2022-09-22T09:32:53.678Z,16.96
2022-09-22T09:35:45.380Z,16.94
2022-09-22T09:38:15.920Z,16.65
2022-09-22T09:40:49.004Z,16.94
2022-09-22T09:43:17.164Z,17.24
2022-09-22T09:46:12.469Z,17.25
2022-09-22T09:48:59.188Z,17.01
2022-09-22T09:54:14.542Z,17.19
2022-09-22T09:57:18.662Z,17.29
2022-09-22T10:00:25.942Z,16.29
2022-09-22T10:03:12.417Z,16.73
2022-09-22T10:05:43.787Z,16.84
2022-09-22T10:16:52.953Z,17.04
2022-09-22T10:19:35.366Z,17.01
2022-09-22T10:22:24.232Z,17.36
2022-09-22T10:24:57.988Z,17.41
2022-09-22T11:49:55.983Z,16.37
2022-09-22T11:55:30.691Z,16.50
2022-09-22T12:01:13.131Z,16.05
2022-09-22T12:04:19.378Z,16.53
2022-09-22T12:06:56.671Z,16.04
2022-09-22T12:10:05.316Z,16.64
2022-09-22T12:12:43.303Z,16.42
2022-09-22T12:16:01.115Z,16.43
2022-09-22T12:19:17.631Z,16.94
2022-09-22T12:22:05.249Z,17.07
2022-09-22T12:24:32.922Z,17.02
2022-09-22T12:27:11.087Z,16.94
2022-09-22T12:29:39.046Z,16.88
2022-09-22T12:32:06.240Z,16.80
2022-09-22T12:34:43.440Z,17.56
2022-09-22T12:37:23.096Z,17.34
2022-09-22T12:39:50.118Z,17.27
2022-09-22T12:42:34.518Z,17.16
2022-09-22T12:45:19.609Z,17.26
2022-09-22T12:47:53.494Z,17.72
2022-09-22T12:50:23.208Z,17.58
2022-09-22T12:52:51.297Z,17.52
2022-09-22T12:55:21.757Z,17.99
2022-09-22T12:57:50.895Z,17.88
2022-09-22T13:00:37.746Z,17.94
2022-09-22T13:06:33.932Z,18.24
2022-09-22T13:09:02.927Z,18.17
2022-09-22T13:12:08.612Z,18.11
2022-09-22T13:15:19.179Z,18.10
2022-09-22T13:17:50.432Z,17.88
2022-09-22T13:20:33.597Z,17.98
2022-09-22T13:28:36.783Z,17.81
2022-09-22T13:33:59.888Z,18.16
2022-09-22T13:36:28.086Z,17.98
2022-09-22T13:38:59.158Z,18.51
2022-09-22T13:41:29.189Z,18.01
2022-09-22T15:08:19.584Z,18.62
2022-09-22T15:10:59.369Z,18.77
2022-09-22T15:16:40.426Z,18.58
2022-09-22T15:19:12.295Z,18.52
2022-09-22T15:21:46.727Z,18.55
2022-09-22T15:24:18.378Z,18.50
2022-09-22T15:26:46.923Z,18.49
2022-09-22T15:29:17.536Z,18.38
2022-09-22T15:34:25.980Z,18.69
2022-09-22T15:36:53.656Z,18.85
2022-09-22T15:39:22.728Z,18.56
2022-09-22T15:41:51.094Z,18.97
2022-09-22T15:44:18.258Z,18.97
2022-09-22T15:46:50.442Z,19.01
2022-09-22T15:49:22.690Z,18.73
2022-09-22T15:51:49.943Z,18.96
2022-09-22T15:54:21.951Z,19.16
2022-09-22T15:56:54.956Z,19.07
2022-09-22T15:59:22.982Z,19.40
2022-09-22T16:01:52.273Z,19.27
2022-09-22T16:04:19.943Z,18.77
2022-09-22T16:06:54.421Z,19.30
2022-09-22T16:09:21.671Z,18.99
2022-09-22T16:11:48.637Z,18.90
2022-09-22T16:14:15.471Z,18.76
2022-09-22T16:16:43.190Z,18.87
2022-09-22T16:19:11.265Z,18.85
2022-09-22T16:21:50.162Z,18.78
2022-09-22T16:24:17.399Z,18.65
2022-09-22T16:26:44.260Z,18.69
2022-09-22T16:29:11.541Z,18.42
2022-09-22T16:31:38.902Z,18.14
2022-09-22T16:34:08.422Z,18.44
2022-09-22T16:36:36.723Z,18.31
2022-09-22T16:39:04.555Z,18.24
2022-09-22T16:41:35.740Z,18.08
2022-09-22T16:44:03.868Z,18.26
2022-09-22T16:46:31.924Z,18.16
2022-09-22T16:49:17.488Z,17.71
2022-09-22T16:51:48.899Z,18.14
2022-09-22T16:54:16.980Z,17.36
2022-09-22T16:56:46.601Z,17.54
2022-09-22T16:59:21.683Z,17.58
2022-09-22T17:01:50.187Z,17.03
2022-09-22T17:04:19.334Z,16.74
2022-09-22T17:06:47.550Z,16.48
2022-09-22T17:09:15.954Z,16.96
2022-09-22T17:11:46.030Z,16.67
2022-09-22T17:14:16.083Z,16.85
2022-09-22T17:16:50.503Z,16.62
2022-09-22T17:19:20.206Z,16.83
2022-09-22T17:21:49.030Z,16.93
2022-09-22T17:24:16.254Z,16.08
2022-09-22T17:26:48.221Z,16.39
2022-09-22T17:30:01.678Z,16.78
2022-09-22T17:32:30.500Z,16.39
2022-09-22T17:34:57.285Z,16.14
2022-09-22T17:37:24.227Z,16.07
2022-09-22T17:39:51.306Z,16.27
2022-09-22T17:42:18.144Z,16.30
2022-09-22T17:44:45.469Z,16.11
2022-09-22T17:47:30.801Z,15.88
2022-09-22T17:50:16.289Z,15.79
2022-09-22T17:53:01.534Z,15.78
2022-09-22T17:55:30.182Z,15.93
2022-09-22T17:57:57.431Z,16.09
2022-09-22T18:00:24.897Z,16.05
2022-09-22T18:02:54.362Z,15.99
2022-09-22T18:05:28.164Z,16.07
2022-09-22T18:07:58.509Z,15.74
2022-09-22T18:10:34.273Z,15.81
2022-09-22T18:13:02.456Z,15.72
2022-09-22T18:15:29.422Z,15.82
2022-09-22T18:17:58.179Z,15.81
2022-09-22T18:20:26.789Z,15.56
2022-09-22T18:22:55.340Z,15.40
2022-09-22T18:25:25.861Z,15.38
2022-09-22T18:27:53.688Z,15.03
2022-09-22T18:30:20.741Z,15.63
2022-09-22T18:32:48.557Z,15.46
2022-09-22T18:35:15.727Z,14.88
2022-09-22T18:37:42.825Z,15.42
2022-09-22T18:40:10.344Z,15.13
2022-09-22T18:42:37.154Z,15.02
2022-09-22T18:45:04.377Z,15.44
2022-09-22T18:47:31.085Z,15.13
2022-09-22T18:49:59.313Z,15.38
2022-09-22T18:52:26.280Z,15.26
2022-09-22T18:54:54.244Z,15.09
2022-09-22T18:57:22.809Z,15.26
2022-09-22T18:59:51.219Z,15.31
2022-09-22T19:02:22.978Z,15.51
2022-09-22T19:04:51.795Z,15.46
2022-09-22T19:07:41.417Z,15.15
2022-09-22T19:10:15.203Z,15.65
2022-09-22T19:12:42.900Z,15.70
2022-09-22T19:15:16.806Z,15.75
2022-09-22T19:17:45.464Z,15.53
2022-09-22T19:20:13.833Z,15.70
2022-09-22T19:22:40.940Z,15.52
2022-09-22T19:25:08.108Z,15.63
2022-09-22T19:27:35.359Z,15.77
2022-09-22T19:30:02.578Z,15.59
2022-09-22T19:32:29.412Z,15.65
2022-09-22T19:34:57.050Z,15.52
2022-09-22T19:37:25.028Z,15.74
2022-09-22T19:39:52.062Z,15.78
2022-09-22T19:42:19.178Z,15.82
2022-09-22T19:44:46.382Z,15.77
2022-09-22T19:47:13.150Z,15.82
2022-09-22T19:49:42.032Z,15.90
2022-09-22T19:52:09.453Z,15.72
2022-09-22T19:54:36.172Z,15.85
2022-09-22T19:57:02.863Z,15.86
2022-09-22T19:59:29.787Z,16.01
2022-09-22T20:01:56.499Z,15.85
2022-09-22T20:04:23.634Z,15.92
2022-09-22T20:06:50.435Z,15.98
2022-09-22T20:09:17.330Z,16.01
2022-09-22T20:11:49.912Z,16.13
2022-09-22T20:14:23.776Z,16.11
2022-09-22T20:17:04.975Z,16.05
2022-09-22T20:19:34.407Z,16.05
2022-09-22T20:22:25.567Z,16.15
2022-09-22T20:25:00.545Z,16.01
2022-09-22T20:27:30.364Z,15.97
2022-09-22T20:29:57.897Z,15.84
2022-09-22T20:32:31.648Z,15.81
2022-09-22T20:34:58.356Z,15.47
2022-09-22T20:37:25.117Z,15.74
2022-09-22T20:39:52.012Z,15.59
2022-09-22T20:42:18.722Z,15.17
2022-09-22T20:44:45.513Z,15.26
2022-09-22T20:47:18.115Z,15.25
2022-09-22T20:49:48.126Z,15.11
2022-09-22T20:52:20.273Z,15.11
2022-09-22T20:54:47.885Z,15.16
2022-09-22T20:57:14.915Z,15.17
2022-09-22T20:59:44.029Z,15.10
2022-09-22T21:02:12.663Z,14.97
2022-09-22T21:04:39.451Z,14.87
2022-09-22T21:07:06.251Z,14.79
2022-09-22T21:09:51.474Z,14.74
2022-09-22T21:12:18.192Z,14.81
2022-09-22T21:14:46.046Z,14.84
2022-09-22T21:17:13.893Z,14.79
2022-09-22T21:19:40.972Z,14.60
2022-09-22T21:22:07.933Z,14.80
2022-09-22T21:24:34.818Z,14.78
2022-09-22T21:27:01.471Z,14.63
2022-09-22T21:29:29.580Z,14.71
2022-09-22T21:31:57.935Z,14.63
2022-09-22T21:34:25.380Z,14.66
2022-09-22T21:36:52.579Z,14.50
2022-09-22T21:39:19.298Z,14.46
2022-09-22T21:41:45.968Z,14.30
2022-09-22T21:44:12.743Z,14.42
2022-09-22T21:46:42.350Z,14.15
2022-09-22T21:49:10.011Z,14.35
2022-09-22T21:51:42.317Z,14.28
2022-09-22T21:54:14.539Z,13.95
2022-09-22T21:56:41.491Z,13.84
2022-09-22T21:59:08.746Z,14.14
2022-09-22T22:01:37.536Z,14.06
2022-09-22T22:04:08.231Z,14.00
2022-09-22T22:06:40.909Z,13.81
2022-09-22T22:09:17.212Z,13.82
2022-09-22T22:11:48.903Z,13.61
2022-09-22T22:14:19.352Z,13.52
2022-09-22T22:16:48.581Z,13.78
2022-09-22T22:19:20.170Z,13.70
2022-09-22T22:21:50.472Z,13.68
2022-09-22T22:24:39.630Z,13.67
2022-09-22T22:27:10.113Z,13.49
2022-09-22T22:29:40.556Z,13.45
2022-09-22T22:32:09.409Z,13.51
2022-09-22T22:34:37.055Z,13.53
2022-09-22T22:37:07.152Z,13.23
2022-09-22T22:39:33.882Z,13.13
2022-09-22T22:42:00.558Z,13.20
2022-09-22T22:44:27.192Z,13.29
2022-09-22T22:46:53.919Z,13.07
2022-09-22T22:49:20.606Z,13.29
2022-09-22T22:51:49.291Z,13.34
2022-09-22T22:54:16.115Z,13.37
2022-09-22T22:56:44.356Z,13.23
2022-09-22T22:59:13.507Z,13.24
2022-09-22T23:01:40.715Z,13.09
2022-09-22T23:04:10.117Z,13.03
2022-09-22T23:06:40.100Z,12.92
2022-09-22T23:09:08.587Z,12.76
2022-09-22T23:11:38.245Z,12.81
2022-09-22T23:14:07.029Z,12.78
2022-09-22T23:16:37.307Z,12.83
2022-09-22T23:19:09.486Z,12.73
2022-09-22T23:21:37.182Z,12.70
2022-09-22T23:24:05.650Z,12.84
2022-09-22T23:26:32.986Z,12.73
2022-09-22T23:29:00.169Z,12.58
2022-09-22T23:31:27.798Z,12.56
2022-09-22T23:33:54.469Z,12.57
2022-09-22T23:36:23.207Z,12.58
2022-09-22T23:38:57.461Z,12.52
2022-09-22T23:41:24.420Z,12.44
2022-09-22T23:43:51.660Z,12.26
2022-09-22T23:46:18.437Z,12.09
2022-09-22T23:48:47.458Z,12.27
2022-09-22T23:51:14.707Z,12.13
2022-09-22T23:53:41.937Z,11.92
2022-09-22T23:56:09.275Z,12.29
2022-09-22T23:58:36.326Z,12.12
